sensor_id;sensor_type;location;lat;lon;timestamp;P1;durP1;ratioP1;P2;durP2;ratioP2
69712;SDS011;56980;51.826;4.424;2022-10-31T00:02:19;5.77;;;2.87;;
69712;SDS011;56980;51.826;4.424;2022-10-31T00:04:44;6.10;;;3.00;;
69712;SDS011;56980;51.826;4.424;2022-10-31T00:07:09;4.23;;;2.67;;
69712;SDS011;56980;51.826;4.424;2022-10-31T00:09:35;6.70;;;2.80;;
69712;SDS011;56980;51.826;4.424;2022-10-31T00:12:00;4.37;;;2.47;;
69712;SDS011;56980;51.826;4.424;2022-10-31T00:14:25;6.17;;;2.70;;
69712;SDS011;56980;51.826;4.424;2022-10-31T00:16:51;6.63;;;2.92;;
69712;SDS011;56980;51.826;4.424;2022-10-31T00:19:16;4.68;;;3.15;;
69712;SDS011;56980;51.826;4.424;2022-10-31T00:21:42;7.03;;;2.97;;
69712;SDS011;56980;51.826;4.424;2022-10-31T00:24:07;4.97;;;2.90;;
69712;SDS011;56980;51.826;4.424;2022-10-31T00:26:33;5.85;;;2.97;;
69712;SDS011;56980;51.826;4.424;2022-10-31T00:28:58;6.60;;;3.30;;
69712;SDS011;56980;51.826;4.424;2022-10-31T00:31:24;6.63;;;3.20;;
69712;SDS011;56980;51.826;4.424;2022-10-31T00:33:50;6.33;;;3.03;;
69712;SDS011;56980;51.826;4.424;2022-10-31T00:36:16;9.63;;;3.20;;
69712;SDS011;56980;51.826;4.424;2022-10-31T00:38:43;6.43;;;3.60;;
69712;SDS011;56980;51.826;4.424;2022-10-31T00:41:10;6.45;;;3.47;;
69712;SDS011;56980;51.826;4.424;2022-10-31T00:43:36;6.70;;;3.78;;
69712;SDS011;56980;51.826;4.424;2022-10-31T00:46:01;6.27;;;2.93;;
69712;SDS011;56980;51.826;4.424;2022-10-31T00:48:27;7.47;;;3.97;;
69712;SDS011;56980;51.826;4.424;2022-10-31T00:50:52;10.43;;;3.87;;
69712;SDS011;56980;51.826;4.424;2022-10-31T00:53:17;5.63;;;3.58;;
69712;SDS011;56980;51.826;4.424;2022-10-31T00:55:43;5.78;;;3.70;;
69712;SDS011;56980;51.826;4.424;2022-10-31T00:58:08;7.97;;;3.40;;
69712;SDS011;56980;51.826;4.424;2022-10-31T01:00:34;5.33;;;3.47;;
69712;SDS011;56980;51.826;4.424;2022-10-31T01:02:59;6.13;;;4.20;;
69712;SDS011;56980;51.826;4.424;2022-10-31T01:05:25;5.15;;;3.42;;
69712;SDS011;56980;51.826;4.424;2022-10-31T01:07:50;8.20;;;4.23;;
69712;SDS011;56980;51.826;4.424;2022-10-31T01:10:16;7.27;;;4.13;;
69712;SDS011;56980;51.826;4.424;2022-10-31T01:12:44;7.72;;;4.30;;
69712;SDS011;56980;51.826;4.424;2022-10-31T01:15:12;10.07;;;4.32;;
69712;SDS011;56980;51.826;4.424;2022-10-31T01:17:39;7.45;;;4.30;;
69712;SDS011;56980;51.826;4.424;2022-10-31T01:20:05;8.38;;;3.90;;
69712;SDS011;56980;51.826;4.424;2022-10-31T01:22:32;9.52;;;4.47;;
69712;SDS011;56980;51.826;4.424;2022-10-31T01:24:58;8.30;;;4.20;;
69712;SDS011;56980;51.826;4.424;2022-10-31T01:27:24;6.05;;;3.60;;
69712;SDS011;56980;51.826;4.424;2022-10-31T01:29:49;8.03;;;4.17;;
69712;SDS011;56980;51.826;4.424;2022-10-31T01:32:14;8.87;;;4.20;;
69712;SDS011;56980;51.826;4.424;2022-10-31T01:34:40;7.83;;;4.17;;
69712;SDS011;56980;51.826;4.424;2022-10-31T01:37:05;5.93;;;3.70;;
69712;SDS011;56980;51.826;4.424;2022-10-31T01:39:30;8.27;;;4.00;;
69712;SDS011;56980;51.826;4.424;2022-10-31T01:41:56;8.02;;;4.70;;
69712;SDS011;56980;51.826;4.424;2022-10-31T01:46:51;8.20;;;4.97;;
69712;SDS011;56980;51.826;4.424;2022-10-31T01:51:51;6.10;;;3.88;;
69712;SDS011;56980;51.826;4.424;2022-10-31T01:54:24;9.57;;;3.88;;
69712;SDS011;56980;51.826;4.424;2022-10-31T01:56:54;7.32;;;3.97;;
69712;SDS011;56980;51.826;4.424;2022-10-31T01:59:22;10.13;;;4.00;;
69712;SDS011;56980;51.826;4.424;2022-10-31T02:01:52;6.10;;;4.07;;
69712;SDS011;56980;51.826;4.424;2022-10-31T02:04:19;9.85;;;4.65;;
69712;SDS011;56980;51.826;4.424;2022-10-31T02:07:05;6.18;;;4.25;;
69712;SDS011;56980;51.826;4.424;2022-10-31T02:09:36;8.38;;;4.22;;
69712;SDS011;56980;51.826;4.424;2022-10-31T02:12:02;8.38;;;5.18;;
69712;SDS011;56980;51.826;4.424;2022-10-31T02:14:30;10.68;;;5.50;;
69712;SDS011;56980;51.826;4.424;2022-10-31T02:16:56;13.15;;;5.90;;
69712;SDS011;56980;51.826;4.424;2022-10-31T02:22:19;9.25;;;5.47;;
69712;SDS011;56980;51.826;4.424;2022-10-31T02:24:58;11.27;;;5.90;;
69712;SDS011;56980;51.826;4.424;2022-10-31T02:30:20;12.50;;;5.63;;
69712;SDS011;56980;51.826;4.424;2022-10-31T02:43:34;10.20;;;5.70;;
69712;SDS011;56980;51.826;4.424;2022-10-31T02:46:15;11.23;;;5.90;;
69712;SDS011;56980;51.826;4.424;2022-10-31T02:48:46;9.65;;;5.43;;
69712;SDS011;56980;51.826;4.424;2022-10-31T02:51:13;12.07;;;6.40;;
69712;SDS011;56980;51.826;4.424;2022-10-31T02:53:40;10.20;;;6.63;;
69712;SDS011;56980;51.826;4.424;2022-10-31T02:58:59;14.35;;;6.90;;
69712;SDS011;56980;51.826;4.424;2022-10-31T03:07:14;9.73;;;6.30;;
69712;SDS011;56980;51.826;4.424;2022-10-31T03:10:10;10.90;;;6.38;;
69712;SDS011;56980;51.826;4.424;2022-10-31T03:15:27;10.38;;;6.28;;
69712;SDS011;56980;51.826;4.424;2022-10-31T03:20:48;14.07;;;7.20;;
69712;SDS011;56980;51.826;4.424;2022-10-31T03:23:19;11.18;;;6.70;;
69712;SDS011;56980;51.826;4.424;2022-10-31T03:25:47;11.13;;;6.00;;
69712;SDS011;56980;51.826;4.424;2022-10-31T03:28:15;8.68;;;4.97;;
69712;SDS011;56980;51.826;4.424;2022-10-31T03:30:44;9.50;;;5.88;;
69712;SDS011;56980;51.826;4.424;2022-10-31T03:33:14;11.18;;;5.88;;
69712;SDS011;56980;51.826;4.424;2022-10-31T03:35:44;10.25;;;6.55;;
69712;SDS011;56980;51.826;4.424;2022-10-31T03:38:12;10.70;;;6.13;;
69712;SDS011;56980;51.826;4.424;2022-10-31T03:40:40;9.48;;;6.40;;
69712;SDS011;56980;51.826;4.424;2022-10-31T03:43:10;8.90;;;5.68;;
69712;SDS011;56980;51.826;4.424;2022-10-31T03:45:44;10.73;;;6.32;;
69712;SDS011;56980;51.826;4.424;2022-10-31T03:48:12;9.90;;;6.65;;
69712;SDS011;56980;51.826;4.424;2022-10-31T03:50:50;13.30;;;6.30;;
69712;SDS011;56980;51.826;4.424;2022-10-31T03:53:47;12.68;;;6.72;;
69712;SDS011;56980;51.826;4.424;2022-10-31T03:58:58;9.98;;;6.07;;
69712;SDS011;56980;51.826;4.424;2022-10-31T04:01:32;10.43;;;6.15;;
69712;SDS011;56980;51.826;4.424;2022-10-31T04:04:02;12.45;;;6.80;;
69712;SDS011;56980;51.826;4.424;2022-10-31T04:06:28;11.35;;;6.45;;
69712;SDS011;56980;51.826;4.424;2022-10-31T04:08:57;11.13;;;6.50;;
69712;SDS011;56980;51.826;4.424;2022-10-31T04:11:28;10.57;;;6.05;;
69712;SDS011;56980;51.826;4.424;2022-10-31T04:13:57;11.35;;;6.57;;
69712;SDS011;56980;51.826;4.424;2022-10-31T04:16:26;11.85;;;6.55;;
69712;SDS011;56980;51.826;4.424;2022-10-31T04:18:52;11.70;;;6.50;;
69712;SDS011;56980;51.826;4.424;2022-10-31T04:21:18;10.90;;;6.40;;
69712;SDS011;56980;51.826;4.424;2022-10-31T04:23:43;10.17;;;6.50;;
69712;SDS011;56980;51.826;4.424;2022-10-31T04:26:11;9.77;;;6.80;;
69712;SDS011;56980;51.826;4.424;2022-10-31T04:28:38;11.18;;;6.53;;
69712;SDS011;56980;51.826;4.424;2022-10-31T04:31:03;10.97;;;7.33;;
69712;SDS011;56980;51.826;4.424;2022-10-31T04:33:29;15.10;;;7.23;;
69712;SDS011;56980;51.826;4.424;2022-10-31T04:35:54;10.23;;;7.37;;
69712;SDS011;56980;51.826;4.424;2022-10-31T04:38:19;13.50;;;7.38;;
69712;SDS011;56980;51.826;4.424;2022-10-31T04:40:45;11.13;;;7.40;;
69712;SDS011;56980;51.826;4.424;2022-10-31T04:43:10;13.13;;;7.70;;
69712;SDS011;56980;51.826;4.424;2022-10-31T04:45:36;13.87;;;7.63;;
69712;SDS011;56980;51.826;4.424;2022-10-31T04:48:02;14.68;;;7.90;;
69712;SDS011;56980;51.826;4.424;2022-10-31T04:50:27;13.23;;;8.93;;
69712;SDS011;56980;51.826;4.424;2022-10-31T04:52:53;12.48;;;7.72;;
69712;SDS011;56980;51.826;4.424;2022-10-31T04:55:18;14.57;;;7.47;;
69712;SDS011;56980;51.826;4.424;2022-10-31T04:57:44;13.17;;;8.40;;
69712;SDS011;56980;51.826;4.424;2022-10-31T05:00:12;12.88;;;7.63;;
69712;SDS011;56980;51.826;4.424;2022-10-31T05:02:43;14.20;;;7.40;;
69712;SDS011;56980;51.826;4.424;2022-10-31T05:05:15;14.70;;;7.60;;
69712;SDS011;56980;51.826;4.424;2022-10-31T05:07:42;13.10;;;8.30;;
69712;SDS011;56980;51.826;4.424;2022-10-31T05:10:09;11.23;;;7.97;;
69712;SDS011;56980;51.826;4.424;2022-10-31T05:12:36;11.80;;;7.95;;
69712;SDS011;56980;51.826;4.424;2022-10-31T05:15:02;14.45;;;7.68;;
69712;SDS011;56980;51.826;4.424;2022-10-31T05:17:30;14.47;;;8.17;;
69712;SDS011;56980;51.826;4.424;2022-10-31T05:19:56;14.43;;;9.05;;
69712;SDS011;56980;51.826;4.424;2022-10-31T05:22:21;15.33;;;8.70;;
69712;SDS011;56980;51.826;4.424;2022-10-31T05:24:46;14.17;;;9.13;;
69712;SDS011;56980;51.826;4.424;2022-10-31T05:27:12;13.73;;;8.60;;
69712;SDS011;56980;51.826;4.424;2022-10-31T05:29:37;16.40;;;9.82;;
69712;SDS011;56980;51.826;4.424;2022-10-31T05:32:03;13.57;;;8.07;;
69712;SDS011;56980;51.826;4.424;2022-10-31T05:34:28;19.77;;;9.50;;
69712;SDS011;56980;51.826;4.424;2022-10-31T05:36:53;15.83;;;9.13;;
69712;SDS011;56980;51.826;4.424;2022-10-31T05:39:19;13.63;;;8.73;;
69712;SDS011;56980;51.826;4.424;2022-10-31T05:41:44;16.40;;;9.07;;
69712;SDS011;56980;51.826;4.424;2022-10-31T05:44:09;12.85;;;8.65;;
69712;SDS011;56980;51.826;4.424;2022-10-31T05:46:35;17.40;;;9.17;;
69712;SDS011;56980;51.826;4.424;2022-10-31T05:49:00;16.53;;;9.53;;
69712;SDS011;56980;51.826;4.424;2022-10-31T05:51:25;15.83;;;9.57;;
69712;SDS011;56980;51.826;4.424;2022-10-31T05:53:51;14.60;;;8.63;;
69712;SDS011;56980;51.826;4.424;2022-10-31T05:56:16;14.47;;;9.33;;
69712;SDS011;56980;51.826;4.424;2022-10-31T05:58:41;17.20;;;9.67;;
69712;SDS011;56980;51.826;4.424;2022-10-31T06:01:09;15.45;;;8.88;;
69712;SDS011;56980;51.826;4.424;2022-10-31T06:03:35;15.23;;;9.30;;
69712;SDS011;56980;51.826;4.424;2022-10-31T06:06:00;23.40;;;9.73;;
69712;SDS011;56980;51.826;4.424;2022-10-31T06:08:26;16.70;;;8.53;;
69712;SDS011;56980;51.826;4.424;2022-10-31T06:10:52;15.50;;;9.50;;
69712;SDS011;56980;51.826;4.424;2022-10-31T06:13:18;17.83;;;10.00;;
69712;SDS011;56980;51.826;4.424;2022-10-31T06:15:44;20.42;;;10.60;;
69712;SDS011;56980;51.826;4.424;2022-10-31T06:18:09;16.57;;;9.53;;
69712;SDS011;56980;51.826;4.424;2022-10-31T06:20:34;17.83;;;9.93;;
69712;SDS011;56980;51.826;4.424;2022-10-31T06:23:00;19.20;;;10.07;;
69712;SDS011;56980;51.826;4.424;2022-10-31T06:25:26;21.23;;;10.05;;
69712;SDS011;56980;51.826;4.424;2022-10-31T06:27:52;22.00;;;10.63;;
69712;SDS011;56980;51.826;4.424;2022-10-31T06:30:17;23.85;;;10.40;;
69712;SDS011;56980;51.826;4.424;2022-10-31T06:32:42;21.43;;;9.47;;
69712;SDS011;56980;51.826;4.424;2022-10-31T06:35:08;19.93;;;10.07;;
69712;SDS011;56980;51.826;4.424;2022-10-31T06:37:34;21.08;;;10.20;;
69712;SDS011;56980;51.826;4.424;2022-10-31T06:39:59;21.00;;;10.60;;
69712;SDS011;56980;51.826;4.424;2022-10-31T06:42:25;21.17;;;9.97;;
69712;SDS011;56980;51.826;4.424;2022-10-31T06:44:50;27.53;;;10.33;;
69712;SDS011;56980;51.826;4.424;2022-10-31T06:47:15;47.73;;;11.77;;
69712;SDS011;56980;51.826;4.424;2022-10-31T06:49:41;25.07;;;11.03;;
69712;SDS011;56980;51.826;4.424;2022-10-31T06:52:06;44.28;;;11.35;;
69712;SDS011;56980;51.826;4.424;2022-10-31T06:54:31;26.67;;;11.55;;
69712;SDS011;56980;51.826;4.424;2022-10-31T06:56:57;27.37;;;12.27;;
69712;SDS011;56980;51.826;4.424;2022-10-31T06:59:22;20.53;;;10.60;;
69712;SDS011;56980;51.826;4.424;2022-10-31T07:01:49;55.00;;;12.15;;
69712;SDS011;56980;51.826;4.424;2022-10-31T07:04:14;23.50;;;11.83;;
69712;SDS011;56980;51.826;4.424;2022-10-31T07:06:40;38.03;;;11.65;;
69712;SDS011;56980;51.826;4.424;2022-10-31T07:09:05;43.47;;;11.63;;
69712;SDS011;56980;51.826;4.424;2022-10-31T07:11:30;24.17;;;11.30;;
69712;SDS011;56980;51.826;4.424;2022-10-31T07:13:56;47.57;;;12.93;;
69712;SDS011;56980;51.826;4.424;2022-10-31T07:16:21;22.63;;;11.73;;
69712;SDS011;56980;51.826;4.424;2022-10-31T07:18:47;21.07;;;11.70;;
69712;SDS011;56980;51.826;4.424;2022-10-31T07:21:12;22.37;;;12.80;;
69712;SDS011;56980;51.826;4.424;2022-10-31T07:23:37;28.40;;;12.37;;
69712;SDS011;56980;51.826;4.424;2022-10-31T07:26:03;22.38;;;11.85;;
69712;SDS011;56980;51.826;4.424;2022-10-31T07:28:28;22.67;;;11.87;;
69712;SDS011;56980;51.826;4.424;2022-10-31T07:30:55;18.93;;;11.67;;
69712;SDS011;56980;51.826;4.424;2022-10-31T07:33:22;19.27;;;11.63;;
69712;SDS011;56980;51.826;4.424;2022-10-31T07:35:48;22.27;;;11.23;;
69712;SDS011;56980;51.826;4.424;2022-10-31T07:38:14;19.37;;;11.77;;
69712;SDS011;56980;51.826;4.424;2022-10-31T07:40:40;19.70;;;11.27;;
69712;SDS011;56980;51.826;4.424;2022-10-31T07:43:06;18.15;;;11.43;;
69712;SDS011;56980;51.826;4.424;2022-10-31T07:45:32;21.83;;;12.35;;
69712;SDS011;56980;51.826;4.424;2022-10-31T07:47:58;24.27;;;12.30;;
69712;SDS011;56980;51.826;4.424;2022-10-31T07:50:28;25.73;;;12.07;;
69712;SDS011;56980;51.826;4.424;2022-10-31T07:53:03;22.40;;;11.25;;
69712;SDS011;56980;51.826;4.424;2022-10-31T07:55:33;39.38;;;13.45;;
69712;SDS011;56980;51.826;4.424;2022-10-31T07:57:59;35.07;;;12.40;;
69712;SDS011;56980;51.826;4.424;2022-10-31T08:00:27;29.33;;;13.02;;
69712;SDS011;56980;51.826;4.424;2022-10-31T08:03:00;29.30;;;13.23;;
69712;SDS011;56980;51.826;4.424;2022-10-31T08:05:27;18.87;;;10.80;;
69712;SDS011;56980;51.826;4.424;2022-10-31T08:07:52;24.17;;;12.68;;
69712;SDS011;56980;51.826;4.424;2022-10-31T08:10:18;21.73;;;12.17;;
69712;SDS011;56980;51.826;4.424;2022-10-31T08:12:44;23.98;;;12.95;;
69712;SDS011;56980;51.826;4.424;2022-10-31T08:15:09;24.40;;;12.67;;
69712;SDS011;56980;51.826;4.424;2022-10-31T08:17:35;24.93;;;12.50;;
69712;SDS011;56980;51.826;4.424;2022-10-31T08:20:01;24.92;;;12.48;;
69712;SDS011;56980;51.826;4.424;2022-10-31T08:22:26;26.00;;;12.53;;
69712;SDS011;56980;51.826;4.424;2022-10-31T08:24:52;28.10;;;13.95;;
69712;SDS011;56980;51.826;4.424;2022-10-31T08:27:17;27.10;;;13.63;;
69712;SDS011;56980;51.826;4.424;2022-10-31T08:29:42;28.20;;;13.67;;
69712;SDS011;56980;51.826;4.424;2022-10-31T08:32:08;29.33;;;14.20;;
69712;SDS011;56980;51.826;4.424;2022-10-31T08:34:33;24.57;;;12.80;;
69712;SDS011;56980;51.826;4.424;2022-10-31T08:36:58;29.77;;;12.83;;
69712;SDS011;56980;51.826;4.424;2022-10-31T08:39:24;26.67;;;13.80;;
69712;SDS011;56980;51.826;4.424;2022-10-31T08:41:49;25.23;;;12.97;;
69712;SDS011;56980;51.826;4.424;2022-10-31T08:44:15;27.77;;;13.40;;
69712;SDS011;56980;51.826;4.424;2022-10-31T08:46:40;27.60;;;14.20;;
69712;SDS011;56980;51.826;4.424;2022-10-31T08:49:06;24.92;;;13.20;;
69712;SDS011;56980;51.826;4.424;2022-10-31T08:51:31;26.50;;;15.03;;
69712;SDS011;56980;51.826;4.424;2022-10-31T08:53:56;27.23;;;14.03;;
69712;SDS011;56980;51.826;4.424;2022-10-31T08:56:22;31.17;;;14.32;;
69712;SDS011;56980;51.826;4.424;2022-10-31T08:58:48;30.50;;;14.73;;
69712;SDS011;56980;51.826;4.424;2022-10-31T09:01:13;28.87;;;14.00;;
69712;SDS011;56980;51.826;4.424;2022-10-31T09:03:39;27.47;;;14.00;;
69712;SDS011;56980;51.826;4.424;2022-10-31T09:06:04;25.03;;;14.97;;
69712;SDS011;56980;51.826;4.424;2022-10-31T09:08:33;30.08;;;14.98;;
69712;SDS011;56980;51.826;4.424;2022-10-31T09:10:59;35.63;;;16.52;;
69712;SDS011;56980;51.826;4.424;2022-10-31T09:13:25;28.20;;;15.47;;
69712;SDS011;56980;51.826;4.424;2022-10-31T09:15:50;33.13;;;15.48;;
69712;SDS011;56980;51.826;4.424;2022-10-31T09:18:17;29.50;;;15.07;;
69712;SDS011;56980;51.826;4.424;2022-10-31T09:20:44;34.03;;;16.02;;
69712;SDS011;56980;51.826;4.424;2022-10-31T09:25:43;31.30;;;16.45;;
69712;SDS011;56980;51.826;4.424;2022-10-31T09:28:10;32.55;;;15.60;;
69712;SDS011;56980;51.826;4.424;2022-10-31T09:30:37;29.65;;;15.93;;
69712;SDS011;56980;51.826;4.424;2022-10-31T09:33:04;31.25;;;15.45;;
69712;SDS011;56980;51.826;4.424;2022-10-31T09:35:31;35.83;;;16.35;;
69712;SDS011;56980;51.826;4.424;2022-10-31T09:38:01;28.83;;;15.50;;
69712;SDS011;56980;51.826;4.424;2022-10-31T09:40:35;26.02;;;15.23;;
69712;SDS011;56980;51.826;4.424;2022-10-31T09:45:35;32.13;;;16.02;;
69712;SDS011;56980;51.826;4.424;2022-10-31T09:48:21;27.88;;;15.07;;
69712;SDS011;56980;51.826;4.424;2022-10-31T09:50:51;30.48;;;14.70;;
69712;SDS011;56980;51.826;4.424;2022-10-31T09:55:55;29.92;;;15.07;;
69712;SDS011;56980;51.826;4.424;2022-10-31T09:58:23;33.63;;;14.90;;
69712;SDS011;56980;51.826;4.424;2022-10-31T10:00:51;30.02;;;15.73;;
69712;SDS011;56980;51.826;4.424;2022-10-31T10:03:35;26.75;;;14.60;;
69712;SDS011;56980;51.826;4.424;2022-10-31T10:08:38;25.17;;;14.20;;
69712;SDS011;56980;51.826;4.424;2022-10-31T10:17:00;23.40;;;12.50;;
69712;SDS011;56980;51.826;4.424;2022-10-31T10:27:49;27.15;;;12.70;;
69712;SDS011;56980;51.826;4.424;2022-10-31T10:30:19;21.23;;;11.63;;
69712;SDS011;56980;51.826;4.424;2022-10-31T10:32:48;20.80;;;11.85;;
69712;SDS011;56980;51.826;4.424;2022-10-31T10:35:27;21.98;;;11.65;;
69712;SDS011;56980;51.826;4.424;2022-10-31T10:38:02;24.58;;;11.82;;
69712;SDS011;56980;51.826;4.424;2022-10-31T10:40:38;20.63;;;12.43;;
69712;SDS011;56980;51.826;4.424;2022-10-31T10:46:37;21.60;;;11.73;;
69712;SDS011;56980;51.826;4.424;2022-10-31T10:48:58;23.38;;;12.27;;
69712;SDS011;56980;51.826;4.424;2022-10-31T10:54:37;23.73;;;12.80;;
69712;SDS011;56980;51.826;4.424;2022-10-31T10:59:36;25.15;;;13.55;;
69712;SDS011;56980;51.826;4.424;2022-10-31T11:02:03;34.35;;;14.20;;
69712;SDS011;56980;51.826;4.424;2022-10-31T11:04:30;29.38;;;14.02;;
69712;SDS011;56980;51.826;4.424;2022-10-31T11:06:58;26.13;;;14.40;;
69712;SDS011;56980;51.826;4.424;2022-10-31T11:09:28;28.00;;;14.00;;
69712;SDS011;56980;51.826;4.424;2022-10-31T11:11:54;30.23;;;14.80;;
69712;SDS011;56980;51.826;4.424;2022-10-31T11:14:21;28.88;;;14.93;;
69712;SDS011;56980;51.826;4.424;2022-10-31T11:16:49;31.00;;;15.93;;
69712;SDS011;56980;51.826;4.424;2022-10-31T11:19:35;33.40;;;15.82;;
69712;SDS011;56980;51.826;4.424;2022-10-31T11:22:08;31.97;;;16.07;;
69712;SDS011;56980;51.826;4.424;2022-10-31T11:24:41;34.78;;;16.92;;
69712;SDS011;56980;51.826;4.424;2022-10-31T11:27:23;37.67;;;16.63;;
69712;SDS011;56980;51.826;4.424;2022-10-31T11:29:50;34.05;;;16.90;;
69712;SDS011;56980;51.826;4.424;2022-10-31T11:32:20;37.17;;;16.67;;
69712;SDS011;56980;51.826;4.424;2022-10-31T11:34:48;35.70;;;16.98;;
69712;SDS011;56980;51.826;4.424;2022-10-31T11:37:23;36.45;;;16.60;;
69712;SDS011;56980;51.826;4.424;2022-10-31T11:39:54;32.45;;;16.45;;
69712;SDS011;56980;51.826;4.424;2022-10-31T11:42:25;30.95;;;16.75;;
69712;SDS011;56980;51.826;4.424;2022-10-31T11:44:53;37.40;;;17.27;;
69712;SDS011;56980;51.826;4.424;2022-10-31T11:47:23;35.15;;;16.83;;
69712;SDS011;56980;51.826;4.424;2022-10-31T11:49:53;38.85;;;18.77;;
69712;SDS011;56980;51.826;4.424;2022-10-31T11:52:20;35.05;;;17.55;;
69712;SDS011;56980;51.826;4.424;2022-10-31T11:54:57;33.40;;;17.17;;
69712;SDS011;56980;51.826;4.424;2022-10-31T11:59:57;31.75;;;16.25;;
69712;SDS011;56980;51.826;4.424;2022-10-31T12:02:24;34.03;;;18.15;;
69712;SDS011;56980;51.826;4.424;2022-10-31T12:04:59;37.17;;;17.70;;
69712;SDS011;56980;51.826;4.424;2022-10-31T12:07:29;35.05;;;18.98;;
69712;SDS011;56980;51.826;4.424;2022-10-31T12:09:55;39.93;;;19.50;;
69712;SDS011;56980;51.826;4.424;2022-10-31T12:12:31;35.40;;;17.70;;
69712;SDS011;56980;51.826;4.424;2022-10-31T12:18:15;37.97;;;17.38;;
69712;SDS011;56980;51.826;4.424;2022-10-31T12:21:12;42.15;;;18.38;;
69712;SDS011;56980;51.826;4.424;2022-10-31T12:24:30;31.27;;;17.55;;
69712;SDS011;56980;51.826;4.424;2022-10-31T12:34:48;40.10;;;18.75;;
69712;SDS011;56980;51.826;4.424;2022-10-31T12:43:34;41.55;;;19.08;;
69712;SDS011;56980;51.826;4.424;2022-10-31T12:46:00;41.75;;;20.13;;
69712;SDS011;56980;51.826;4.424;2022-10-31T12:54:30;48.47;;;21.63;;
69712;SDS011;56980;51.826;4.424;2022-10-31T13:00:16;46.50;;;21.05;;
69712;SDS011;56980;51.826;4.424;2022-10-31T13:08:18;43.47;;;20.77;;
69712;SDS011;56980;51.826;4.424;2022-10-31T13:10:58;50.53;;;21.58;;
69712;SDS011;56980;51.826;4.424;2022-10-31T13:16:46;53.88;;;21.83;;
69712;SDS011;56980;51.826;4.424;2022-10-31T13:19:17;56.00;;;22.83;;
69712;SDS011;56980;51.826;4.424;2022-10-31T13:24:23;45.00;;;20.48;;
69712;SDS011;56980;51.826;4.424;2022-10-31T13:26:57;48.15;;;20.92;;
69712;SDS011;56980;51.826;4.424;2022-10-31T13:31:58;51.80;;;21.42;;
69712;SDS011;56980;51.826;4.424;2022-10-31T13:34:38;48.67;;;20.90;;
69712;SDS011;56980;51.826;4.424;2022-10-31T13:45:48;47.78;;;21.63;;
69712;SDS011;56980;51.826;4.424;2022-10-31T13:50:41;59.83;;;21.80;;
69712;SDS011;56980;51.826;4.424;2022-10-31T13:55:45;43.20;;;20.03;;
69712;SDS011;56980;51.826;4.424;2022-10-31T13:58:23;42.25;;;20.33;;
69712;SDS011;56980;51.826;4.424;2022-10-31T14:03:35;50.58;;;20.48;;
69712;SDS011;56980;51.826;4.424;2022-10-31T14:06:02;46.25;;;20.33;;
69712;SDS011;56980;51.826;4.424;2022-10-31T14:08:28;45.10;;;20.20;;
69712;SDS011;56980;51.826;4.424;2022-10-31T14:10:58;44.90;;;19.48;;
69712;SDS011;56980;51.826;4.424;2022-10-31T14:13:34;50.50;;;20.77;;
69712;SDS011;56980;51.826;4.424;2022-10-31T14:16:20;43.83;;;20.25;;
69712;SDS011;56980;51.826;4.424;2022-10-31T14:18:50;45.15;;;20.58;;
69712;SDS011;56980;51.826;4.424;2022-10-31T14:23:49;42.53;;;20.27;;
69712;SDS011;56980;51.826;4.424;2022-10-31T14:26:30;45.58;;;20.30;;
69712;SDS011;56980;51.826;4.424;2022-10-31T14:28:59;49.63;;;21.38;;
69712;SDS011;56980;51.826;4.424;2022-10-31T14:31:29;43.78;;;20.15;;
69712;SDS011;56980;51.826;4.424;2022-10-31T14:36:55;39.63;;;19.35;;
69712;SDS011;56980;51.826;4.424;2022-10-31T14:39:31;49.53;;;19.98;;
69712;SDS011;56980;51.826;4.424;2022-10-31T14:42:09;39.97;;;20.13;;
69712;SDS011;56980;51.826;4.424;2022-10-31T14:44:55;43.28;;;20.15;;
69712;SDS011;56980;51.826;4.424;2022-10-31T14:53:05;55.58;;;21.92;;
69712;SDS011;56980;51.826;4.424;2022-10-31T14:55:38;49.70;;;22.20;;
69712;SDS011;56980;51.826;4.424;2022-10-31T14:58:20;48.28;;;20.90;;
69712;SDS011;56980;51.826;4.424;2022-10-31T15:00:50;51.97;;;22.75;;
69712;SDS011;56980;51.826;4.424;2022-10-31T15:03:23;41.45;;;20.83;;
69712;SDS011;56980;51.826;4.424;2022-10-31T15:05:54;50.97;;;22.35;;
69712;SDS011;56980;51.826;4.424;2022-10-31T15:08:27;45.28;;;22.73;;
69712;SDS011;56980;51.826;4.424;2022-10-31T15:11:11;45.95;;;21.38;;
69712;SDS011;56980;51.826;4.424;2022-10-31T15:13:45;42.83;;;21.85;;
69712;SDS011;56980;51.826;4.424;2022-10-31T15:18:59;44.35;;;24.08;;
69712;SDS011;56980;51.826;4.424;2022-10-31T15:21:27;46.90;;;23.20;;
69712;SDS011;56980;51.826;4.424;2022-10-31T15:23:55;48.25;;;23.92;;
69712;SDS011;56980;51.826;4.424;2022-10-31T15:26:24;57.25;;;24.08;;
69712;SDS011;56980;51.826;4.424;2022-10-31T15:28:58;49.78;;;25.38;;
69712;SDS011;56980;51.826;4.424;2022-10-31T15:31:28;56.47;;;25.33;;
69712;SDS011;56980;51.826;4.424;2022-10-31T15:33:56;47.05;;;23.55;;
69712;SDS011;56980;51.826;4.424;2022-10-31T15:36:26;48.55;;;23.27;;
69712;SDS011;56980;51.826;4.424;2022-10-31T15:38:52;48.47;;;24.00;;
69712;SDS011;56980;51.826;4.424;2022-10-31T15:42:03;50.60;;;23.55;;
69712;SDS011;56980;51.826;4.424;2022-10-31T15:44:14;53.58;;;24.52;;
69712;SDS011;56980;51.826;4.424;2022-10-31T15:46:51;50.15;;;24.60;;
69712;SDS011;56980;51.826;4.424;2022-10-31T15:49:32;50.15;;;24.60;;
69712;SDS011;56980;51.826;4.424;2022-10-31T15:52:05;58.13;;;25.08;;
69712;SDS011;56980;51.826;4.424;2022-10-31T15:55:05;57.35;;;24.58;;
69712;SDS011;56980;51.826;4.424;2022-10-31T15:57:39;52.13;;;24.90;;
69712;SDS011;56980;51.826;4.424;2022-10-31T16:00:21;47.10;;;25.83;;
69712;SDS011;56980;51.826;4.424;2022-10-31T16:02:47;48.92;;;25.17;;
69712;SDS011;56980;51.826;4.424;2022-10-31T16:05:18;53.43;;;25.10;;
69712;SDS011;56980;51.826;4.424;2022-10-31T16:07:48;51.60;;;23.85;;
69712;SDS011;56980;51.826;4.424;2022-10-31T16:10:24;43.03;;;23.38;;
69712;SDS011;56980;51.826;4.424;2022-10-31T16:12:51;46.85;;;24.48;;
69712;SDS011;56980;51.826;4.424;2022-10-31T16:15:19;50.73;;;23.57;;
69712;SDS011;56980;51.826;4.424;2022-10-31T16:17:47;49.65;;;25.00;;
69712;SDS011;56980;51.826;4.424;2022-10-31T16:21:14;49.25;;;24.20;;
69712;SDS011;56980;51.826;4.424;2022-10-31T16:23:17;46.22;;;22.02;;
69712;SDS011;56980;51.826;4.424;2022-10-31T16:25:45;45.30;;;23.13;;
69712;SDS011;56980;51.826;4.424;2022-10-31T16:28:19;44.90;;;20.67;;
69712;SDS011;56980;51.826;4.424;2022-10-31T16:30:49;38.22;;;19.85;;
69712;SDS011;56980;51.826;4.424;2022-10-31T16:33:33;40.63;;;20.80;;
69712;SDS011;56980;51.826;4.424;2022-10-31T16:38:53;37.05;;;17.50;;
69712;SDS011;56980;51.826;4.424;2022-10-31T16:41:24;37.43;;;17.10;;
69712;SDS011;56980;51.826;4.424;2022-10-31T16:43:51;34.85;;;18.10;;
69712;SDS011;56980;51.826;4.424;2022-10-31T16:46:24;30.85;;;16.02;;
69712;SDS011;56980;51.826;4.424;2022-10-31T16:48:51;29.42;;;16.88;;
69712;SDS011;56980;51.826;4.424;2022-10-31T16:51:17;27.73;;;15.77;;
69712;SDS011;56980;51.826;4.424;2022-10-31T16:53:43;32.72;;;16.33;;
69712;SDS011;56980;51.826;4.424;2022-10-31T16:56:14;32.80;;;15.20;;
69712;SDS011;56980;51.826;4.424;2022-10-31T16:58:48;29.55;;;14.60;;
69712;SDS011;56980;51.826;4.424;2022-10-31T17:01:14;34.20;;;15.20;;
69712;SDS011;56980;51.826;4.424;2022-10-31T17:03:39;30.60;;;13.80;;
69712;SDS011;56980;51.826;4.424;2022-10-31T17:06:05;33.75;;;14.35;;
69712;SDS011;56980;51.826;4.424;2022-10-31T17:08:30;29.43;;;13.87;;